Αρχική σελίδα
METAR-TAF:

METAR-TAF

Αεροδρόμια :

Claremore, Οκλαχόμα, Ηνωμένες Πολιτείες Αμερικής

γεωγραφικό πλάτος: 36-17-40N, γεωγραφικό μήκος: 095-28-47W, υψόμετρο: 221 μ

Παρών καιρός

Η αναφορά έγινε 14 λεπτά πριν, στις 08:15 UTC
Άνεμος 7 kt από Ν
Θερμοκρασία 28°C
Υγρασία 70%
Πίεση 1009 hPa
Ορατότητα: 16.1 χλμ
Καθαρός ουρανός

METAR: KGCM 200815Z AUTO 17007KT 10SM CLR 28/22 A2981 RMK AO2

Χρόνος: 03:29 (08:29 UTC)


TAF: λείπει

Μετεωρολογικές αναφορές και προγνώσεις για περισσότερα από 4000 αεροδρόμια (δελτία METAR και TAF).

Οι διαθέσιμοι σταθμοί απεικονίζονται στο χάρτη με κίτρινες και κόκκινες κουκκίδες.

Μετακινήστε το ποντίκι πάνω από τις κουκκίδες για να δείτε το όνομα του σταθμού.

Στη συνέχεια, κάντε κλικ για να δείτε τις μετεωρολογικές αναφορές και τις προγνώσεις καιρού.

Για να αλλάξετε το χάρτη: κάντε κλικ στα πράσινα κουμπιά με τον μαύρο σταυρό για να ζουμάρετε, στο πράσινο κουμπί με την παύλα για να αφαιρέσετε το ζουμ ή στα πράσινα βέλη για να αντιπαραβάλλετε χάρτες.


METAR-TAF: